Time;durP1;ratioP1;P1;durP2;ratioP2;P2;SDS_P1;SDS_P2;PMS_P1;PMS_P2;Temp;Humidity;BMP_temperature;BMP_pressure;BME280_temperature;BME280_humidity;BME280_pressure;Samples;Min_cycle;Max_cycle;Signal;HPM_P1;HPM_P2
2023/10/21 00:00:09;;;;;;;18.33;7.82;;;;;;;-143.21;47.66;71477.34;5069885;28;20228;-81
2023/10/21 00:02:36;;;;;;;22.17;7.70;;;;;;;-143.21;47.60;71449.56;5070110;28;20229;-79
2023/10/21 00:05:03;;;;;;;18.23;7.95;;;;;;;-143.21;47.67;71483.28;5069547;28;20656;-79
2023/10/21 00:07:30;;;;;;;13.43;7.57;;;;;;;-143.21;47.80;71469.41;5069073;28;20201;-80
2023/10/21 00:09:58;;;;;;;20.20;7.30;;;;;;;-143.21;48.13;71479.31;5069895;28;20208;-80
2023/10/21 00:12:25;;;;;;;17.42;8.20;;;;;;;-143.21;48.69;71495.19;5069744;28;20609;-80
2023/10/21 00:14:52;;;;;;;21.80;8.60;;;;;;;-143.21;48.73;71511.03;5069886;28;20350;-80
2023/10/21 00:17:20;;;;;;;13.73;7.97;;;;;;;-143.21;48.72;71497.16;5069291;28;20205;-80
2023/10/21 00:19:47;;;;;;;20.60;8.48;;;;;;;-143.21;49.06;71507.06;5069442;28;20237;-80
2023/10/21 00:22:15;;;;;;;16.75;8.10;;;;;;;-143.21;49.38;71493.19;5068735;28;20303;-80
2023/10/21 00:24:42;;;;;;;20.88;7.57;;;;;;;-143.21;49.63;71536.81;5069765;28;20208;-80
2023/10/21 00:27:09;;;;;;;21.92;7.82;;;;;;;-143.21;49.73;71538.78;5068909;28;20676;-80
2023/10/21 00:29:35;;;;;;;15.35;6.72;;;;;;;-143.21;49.41;71520.94;5069136;28;20252;-81
2023/10/21 00:32:04;;;;;;;24.55;8.32;;;;;;;-143.21;49.59;71534.81;5069045;28;20205;-80
2023/10/21 00:34:38;;;;;;;15.88;7.55;;;;;;;-143.21;49.89;71560.59;5066214;28;20203;-79
2023/10/21 00:37:05;;;;;;;19.05;7.97;;;;;;;-143.21;49.94;71528.88;5067881;28;20205;-79
2023/10/21 00:39:34;;;;;;;19.58;7.20;;;;;;;-143.21;50.54;71568.53;5068268;28;20229;-80
2023/10/21 00:42:01;;;;;;;17.08;7.40;;;;;;;-143.21;50.63;71578.44;5069200;28;20227;-80
2023/10/21 00:44:28;;;;;;;15.13;7.20;;;;;;;-143.21;50.99;71600.25;5067813;28;20284;-79
2023/10/21 00:46:55;;;;;;;15.55;7.10;;;;;;;-143.21;51.67;71631.97;5068687;28;20209;-79
2023/10/21 00:49:22;;;;;;;18.17;7.13;;;;;;;-143.21;51.66;71610.16;5068697;28;21037;-79
2023/10/21 00:51:50;;;;;;;19.38;6.82;;;;;;;-143.21;52.25;71622.06;5068410;28;20668;-80
2023/10/21 00:54:18;;;;;;;17.63;6.45;;;;;;;-143.21;52.56;71618.09;5068816;28;20214;-80
2023/10/21 00:56:45;;;;;;;12.48;6.57;;;;;;;-143.21;52.36;71635.94;5067656;28;20205;-79
2023/10/21 00:59:12;;;;;;;19.52;6.53;;;;;;;-143.21;52.52;71616.13;5067406;28;20212;-80
2023/10/21 01:01:39;;;;;;;15.90;6.83;;;;;;;-143.21;52.67;71633.97;5068270;28;20201;-79
2023/10/21 01:04:06;;;;;;;11.83;6.07;;;;;;;-143.21;52.30;71647.84;5068872;28;20205;-80
2023/10/21 01:06:33;;;;;;;16.67;6.33;;;;;;;-143.21;53.07;71626.03;5068747;28;20197;-78
2023/10/21 01:09:01;;;;;;;15.80;6.00;;;;;;;-143.21;54.17;71695.44;5067606;28;20225;-79
2023/10/21 01:11:28;;;;;;;14.00;6.40;;;;;;;-143.21;54.34;71683.53;5068067;28;20198;-78
2023/10/21 01:13:56;;;;;;;21.53;6.43;;;;;;;-143.21;54.54;71705.34;5067479;28;20259;-78
2023/10/21 01:16:23;;;;;;;18.37;6.57;;;;;;;-143.21;54.16;71673.63;5066780;28;20271;-78
2023/10/21 01:18:50;;;;;;;18.03;6.50;;;;;;;-143.21;54.41;71681.56;5067192;28;20213;-80
2023/10/21 01:21:16;;;;;;;16.77;7.47;;;;;;;-143.21;53.83;71677.59;5071910;28;20233;-80
2023/10/21 01:23:45;;;;;;;12.50;6.53;;;;;;;-143.21;53.93;71657.75;5072033;28;20680;-79
2023/10/21 01:26:11;;;;;;;13.07;6.10;;;;;;;-143.21;54.29;71681.56;5072095;28;20205;-79
2023/10/21 01:28:38;;;;;;;13.70;5.43;;;;;;;-143.21;53.91;71671.63;5072849;28;20201;-80
2023/10/21 01:31:05;;;;;;;15.98;6.25;;;;;;;-143.21;54.22;71673.63;5071966;28;20725;-79
2023/10/21 01:33:32;;;;;;;17.13;6.40;;;;;;;-143.21;54.29;71685.50;5072306;28;20640;-80
2023/10/21 01:35:58;;;;;;;16.97;5.77;;;;;;;-143.21;54.45;71673.63;5072655;28;20209;-79
2023/10/21 01:38:25;;;;;;;16.87;6.03;;;;;;;-143.21;54.40;71677.59;5072841;28;20675;-81
2023/10/21 01:40:53;;;;;;;11.07;6.00;;;;;;;-143.21;54.50;71665.69;5072937;28;20221;-80
2023/10/21 01:43:20;;;;;;;15.37;6.20;;;;;;;-143.21;54.68;71669.66;5072419;28;21131;-81
2023/10/21 01:45:47;;;;;;;12.27;6.27;;;;;;;-143.21;54.19;71687.50;5072327;28;20597;-79
2023/10/21 01:48:14;;;;;;;19.03;6.87;;;;;;;-143.21;54.31;71647.84;5071799;28;20216;-78
2023/10/21 01:50:41;;;;;;;9.70;4.83;;;;;;;-143.21;54.40;71665.69;5071381;28;20702;-79
2023/10/21 01:53:08;;;;;;;16.33;6.33;;;;;;;-143.21;53.98;71699.41;5072049;28;20556;-78
2023/10/21 01:55:35;;;;;;;19.80;5.77;;;;;;;-143.21;53.97;71655.78;5071652;28;20225;-78
2023/10/21 01:58:04;;;;;;;20.37;5.87;;;;;;;-143.21;54.03;71649.81;5068573;28;20203;-80
2023/10/21 02:00:31;;;;;;;10.27;5.27;;;;;;;-143.21;52.78;71655.78;5072438;28;20225;-80
2023/10/21 02:02:58;;;;;;;10.47;5.57;;;;;;;-143.21;52.70;71661.72;5069225;28;20303;-80
2023/10/21 02:05:25;;;;;;;13.23;5.67;;;;;;;-143.21;52.48;71630.00;5071579;28;20209;-80
2023/10/21 02:07:52;;;;;;;14.20;5.17;;;;;;;-143.21;52.69;71647.84;5071673;28;20205;-80
2023/10/21 02:10:19;;;;;;;13.20;5.38;;;;;;;-143.21;52.78;71659.75;5071544;28;20209;-79
2023/10/21 02:12:46;;;;;;;16.23;5.73;;;;;;;-143.21;52.88;71631.97;5072115;28;20593;-78
2023/10/21 02:15:14;;;;;;;19.03;5.40;;;;;;;-143.21;53.39;71673.63;5070221;28;20205;-78
2023/10/21 02:17:42;;;;;;;13.37;5.63;;;;;;;-143.21;53.04;71659.75;5069245;28;20227;-78
2023/10/21 02:20:12;;;;;;;13.37;5.30;;;;;;;-143.21;53.04;71667.66;5070487;28;20221;-79
2023/10/21 02:22:38;;;;;;;16.50;5.53;;;;;;;-143.21;53.25;71677.59;5070859;28;20198;-79
2023/10/21 02:25:08;;;;;;;13.07;5.33;;;;;;;-143.21;53.86;71687.50;5070433;28;20201;-79
2023/10/21 02:27:35;;;;;;;14.87;5.50;;;;;;;-143.21;53.85;71687.50;5070451;28;20656;-79
2023/10/21 02:30:02;;;;;;;11.57;5.17;;;;;;;-143.21;53.79;71683.53;5069975;28;20233;-79
2023/10/21 02:32:30;;;;;;;14.60;5.40;;;;;;;-143.21;54.25;71691.47;5067751;28;20585;-79
2023/10/21 02:34:57;;;;;;;14.07;5.73;;;;;;;-143.21;54.20;71699.41;5071072;28;20205;-81
2023/10/21 02:37:24;;;;;;;13.93;5.23;;;;;;;-143.21;54.30;71703.34;5071423;28;20213;-81
2023/10/21 02:39:51;;;;;;;12.37;6.10;;;;;;;-143.21;54.40;71701.38;5070557;28;20256;-80
2023/10/21 02:42:18;;;;;;;16.30;5.57;;;;;;;-143.21;54.74;71715.25;5069390;28;20814;-80
2023/10/21 02:44:45;;;;;;;15.97;5.03;;;;;;;-143.21;54.87;71703.34;5070504;28;20224;-80
2023/10/21 02:47:12;;;;;;;10.70;5.37;;;;;;;-143.21;55.01;71717.25;5069339;28;20283;-81
2023/10/21 02:49:40;;;;;;;13.77;5.40;;;;;;;-143.21;55.14;71713.28;5069390;28;20208;-80
2023/10/21 02:52:07;;;;;;;21.03;6.47;;;;;;;-143.21;55.30;71723.19;5071414;28;20205;-80
2023/10/21 02:54:34;;;;;;;15.43;5.70;;;;;;;-143.21;55.46;71711.28;5070504;28;20205;-81
2023/10/21 02:57:00;;;;;;;14.53;5.97;;;;;;;-143.21;55.85;71746.97;5070606;28;20201;-80
2023/10/21 02:59:27;;;;;;;18.47;6.80;;;;;;;-143.21;55.74;71729.13;5067515;28;20680;-80
2023/10/21 03:02:09;;;;;;;15.40;6.37;;;;;;;-143.21;56.58;71776.72;5070010;28;20701;-80
2023/10/21 03:04:36;;;;;;;14.50;6.00;;;;;;;-143.21;57.00;71796.56;5068371;28;20201;-81
2023/10/21 03:07:05;;;;;;;15.90;5.90;;;;;;;-143.21;58.28;71824.31;5070314;28;20255;-80
2023/10/21 03:09:31;;;;;;;16.53;6.17;;;;;;;-143.21;58.11;71820.34;5070954;28;20233;-81
2023/10/21 03:11:58;;;;;;;16.00;6.13;;;;;;;-143.21;58.34;71820.34;5070296;28;20205;-81
2023/10/21 03:14:25;;;;;;;18.73;6.67;;;;;;;-143.21;58.76;71822.34;5070804;28;20209;-80
2023/10/21 03:16:52;;;;;;;13.27;6.00;;;;;;;-143.21;58.44;71824.31;5069793;28;20209;-79
2023/10/21 03:19:19;;;;;;;15.30;5.87;;;;;;;-143.21;58.33;71814.41;5069243;28;20205;-80
2023/10/21 03:21:47;;;;;;;14.37;6.10;;;;;;;-143.21;58.35;71826.28;5069156;28;20734;-79
2023/10/21 03:24:15;;;;;;;17.87;6.50;;;;;;;-143.21;58.21;71824.31;5069331;28;20201;-79
2023/10/21 03:26:42;;;;;;;13.70;6.13;;;;;;;-143.21;57.95;71812.41;5069905;28;20258;-80
2023/10/21 03:29:09;;;;;;;14.90;6.60;;;;;;;-143.21;58.16;71816.38;5068880;28;20201;-80
2023/10/21 03:31:35;;;;;;;11.77;5.77;;;;;;;-143.21;58.39;71818.38;5069771;28;20217;-80
2023/10/21 03:34:03;;;;;;;18.63;6.10;;;;;;;-143.21;58.81;71824.31;5069965;28;20278;-80
2023/10/21 03:36:30;;;;;;;16.90;7.23;;;;;;;-143.21;58.56;71846.13;5069521;28;20668;-80
2023/10/21 03:38:57;;;;;;;13.20;5.80;;;;;;;-143.21;58.53;71820.34;5069924;28;20205;-80
2023/10/21 03:41:25;;;;;;;19.17;7.10;;;;;;;-143.21;59.18;71838.19;5069490;28;20252;-79
2023/10/21 03:43:52;;;;;;;14.40;6.70;;;;;;;-143.21;59.19;71846.13;5068709;28;20205;-79
2023/10/21 03:46:20;;;;;;;20.23;6.50;;;;;;;-143.21;59.54;71848.09;5069114;28;20206;-80
2023/10/21 03:48:47;;;;;;;13.37;6.17;;;;;;;-143.21;59.45;71858.03;5068934;28;20221;-80
2023/10/21 03:51:13;;;;;;;10.27;6.17;;;;;;;-143.21;59.84;71854.06;5068722;28;20288;-80
2023/10/21 03:53:41;;;;;;;15.00;6.00;;;;;;;-143.21;59.96;71858.03;5069395;28;20965;-80
2023/10/21 03:56:08;;;;;;;9.80;6.03;;;;;;;-143.21;59.91;71860.00;5069820;28;20212;-79
2023/10/21 03:58:36;;;;;;;17.60;6.80;;;;;;;-143.21;60.00;71860.00;5066341;28;20205;-79
2023/10/21 04:01:04;;;;;;;14.53;7.40;;;;;;;-143.21;59.85;71860.00;5069252;28;20225;-79
2023/10/21 04:03:32;;;;;;;20.17;7.57;;;;;;;-143.21;59.91;71854.06;5069171;28;20209;-79
2023/10/21 04:05:59;;;;;;;18.10;7.47;;;;;;;-143.21;60.11;71862.00;5069286;28;20213;-78
2023/10/21 04:08:28;;;;;;;15.80;7.20;;;;;;;-143.21;60.32;71871.91;5069309;28;20201;-80
2023/10/21 04:10:54;;;;;;;21.83;8.03;;;;;;;-143.21;60.68;71881.81;5069866;28;20197;-79
2023/10/21 04:13:22;;;;;;;20.60;8.53;;;;;;;-143.21;60.81;71877.84;5069202;28;20224;-79
2023/10/21 04:15:50;;;;;;;30.97;10.67;;;;;;;-143.21;60.91;71883.81;5069206;28;20233;-79
2023/10/21 04:18:17;;;;;;;16.73;7.77;;;;;;;-143.21;60.83;71885.78;5068236;28;20309;-79
2023/10/21 04:20:44;;;;;;;22.23;9.73;;;;;;;-143.21;61.41;71885.78;5067859;28;20218;-79
2023/10/21 04:23:12;;;;;;;26.53;11.87;;;;;;;-143.21;61.56;71907.59;5067971;28;20592;-79
2023/10/21 04:25:39;;;;;;;25.10;9.70;;;;;;;-143.21;61.81;71895.69;5068608;28;20206;-79
2023/10/21 04:28:05;;;;;;;19.87;9.80;;;;;;;-143.21;61.75;71911.56;5068172;28;20212;-79
2023/10/21 04:30:32;;;;;;;25.87;10.07;;;;;;;-143.21;61.83;71921.47;5068075;28;20691;-79
2023/10/21 04:33:00;;;;;;;23.40;9.03;;;;;;;-143.21;61.87;71923.47;5069214;28;20201;-79
2023/10/21 04:35:28;;;;;;;21.63;8.40;;;;;;;-143.21;62.28;71933.38;5065625;28;20213;-78
2023/10/21 04:37:55;;;;;;;15.13;8.33;;;;;;;-143.21;62.46;71953.19;5068986;28;20209;-78
2023/10/21 04:40:22;;;;;;;18.87;9.37;;;;;;;-143.21;63.03;71963.13;5068608;28;20213;-79
2023/10/21 04:42:49;;;;;;;20.13;9.33;;;;;;;-143.21;64.04;71992.88;5068521;28;20213;-78
2023/10/21 04:45:15;;;;;;;25.70;10.40;;;;;;;-143.21;64.43;72012.69;5068134;28;20201;-79
2023/10/21 04:47:43;;;;;;;14.97;9.43;;;;;;;-143.21;65.35;72010.72;5068136;28;20197;-79
2023/10/21 04:50:12;;;;;;;21.70;10.83;;;;;;;-143.21;64.98;72006.75;5068434;28;20258;-79
2023/10/21 04:52:38;;;;;;;26.40;11.10;;;;;;;-143.21;64.60;72016.66;5067955;28;20205;-79
2023/10/21 04:55:06;;;;;;;28.03;12.57;;;;;;;-143.21;64.48;72008.72;5068161;28;20395;-78
2023/10/21 04:57:32;;;;;;;24.80;10.37;;;;;;;-143.21;64.54;72030.53;5068004;28;20197;-78
2023/10/21 04:59:59;;;;;;;16.30;8.83;;;;;;;-143.21;64.48;72010.72;5069345;28;20209;-80
2023/10/21 05:02:26;;;;;;;20.77;10.00;;;;;;;-143.21;64.83;72038.47;5068487;28;20248;-80
2023/10/21 05:04:53;;;;;;;27.43;10.37;;;;;;;-143.21;64.51;72016.66;5068103;28;20197;-80
2023/10/21 05:07:21;;;;;;;20.50;10.03;;;;;;;-143.21;64.39;72024.59;5069092;28;20205;-82
2023/10/21 05:09:48;;;;;;;31.63;10.90;;;;;;;-143.21;63.99;72016.66;5069035;28;21336;-80
2023/10/21 05:12:16;;;;;;;19.30;10.00;;;;;;;-143.21;64.08;72020.63;5069232;28;20216;-79
2023/10/21 05:14:43;;;;;;;22.50;9.20;;;;;;;-143.21;64.18;72022.59;5068698;28;20197;-80
2023/10/21 05:17:10;;;;;;;25.50;8.87;;;;;;;-143.21;64.10;72030.53;5068878;28;20197;-79
2023/10/21 05:19:37;;;;;;;17.93;8.40;;;;;;;-143.21;63.65;72022.59;5068050;28;20224;-79
2023/10/21 05:22:04;;;;;;;31.93;9.33;;;;;;;-143.21;63.98;72016.66;5068012;28;20236;-79
2023/10/21 05:24:32;;;;;;;21.17;8.43;;;;;;;-143.21;63.71;72014.69;5068399;28;20228;-79
2023/10/21 05:26:59;;;;;;;20.10;8.07;;;;;;;-143.21;63.72;72008.72;5068355;28;20212;-80
2023/10/21 05:29:26;;;;;;;16.63;8.17;;;;;;;-143.21;63.50;72008.72;5067564;28;20244;-79
2023/10/21 05:31:54;;;;;;;18.50;7.70;;;;;;;-143.21;63.65;72004.75;5068874;28;20209;-79
2023/10/21 05:34:21;;;;;;;19.33;7.63;;;;;;;-143.21;63.43;72008.72;5068467;28;20213;-78
2023/10/21 05:36:48;;;;;;;27.87;8.57;;;;;;;-143.21;63.49;72008.72;5068560;28;20259;-80
2023/10/21 05:39:15;;;;;;;17.10;8.40;;;;;;;-143.21;63.15;72004.75;5068569;28;20213;-79
2023/10/21 05:41:44;;;;;;;18.87;7.57;;;;;;;-143.21;63.43;72010.72;5068337;28;20660;-79
2023/10/21 05:44:10;;;;;;;33.47;18.83;;;;;;;-143.21;63.36;72004.75;5067951;28;20202;-79
2023/10/21 05:46:37;;;;;;;29.17;14.03;;;;;;;-143.21;63.68;72010.72;5068712;28;20213;-79
2023/10/21 05:49:04;;;;;;;24.53;11.37;;;;;;;-143.21;63.63;71994.84;5068563;28;20206;-79
2023/10/21 05:51:31;;;;;;;15.93;7.93;;;;;;;-143.21;63.04;71984.94;5068243;28;20656;-81
2023/10/21 05:53:59;;;;;;;20.13;8.33;;;;;;;-143.21;62.87;71992.88;5067455;28;20198;-80
2023/10/21 05:56:30;;;;;;;24.57;8.33;;;;;;;-143.21;62.47;71982.94;5068837;28;20589;-80
2023/10/21 05:58:58;;;;;;;19.00;8.40;;;;;;;-143.21;62.33;71969.06;5066716;28;20206;-80
2023/10/21 06:01:25;;;;;;;16.87;7.73;;;;;;;-143.21;62.07;71975.00;5068617;28;20223;-80
2023/10/21 06:03:52;;;;;;;18.53;7.30;;;;;;;-143.21;62.04;71961.13;5068979;28;20201;-80
2023/10/21 06:06:19;;;;;;;19.50;7.17;;;;;;;-143.21;61.62;71955.19;5070053;28;20213;-79
2023/10/21 06:08:46;;;;;;;16.33;8.20;;;;;;;-143.21;61.76;71947.25;5072660;28;20802;-79
2023/10/21 06:11:12;;;;;;;13.43;8.10;;;;;;;-143.21;61.56;71949.25;5072231;28;20205;-79
2023/10/21 06:13:40;;;;;;;16.37;7.10;;;;;;;-143.21;61.31;71937.34;5072044;28;20231;-79
2023/10/21 06:16:09;;;;;;;19.07;7.13;;;;;;;-143.21;61.20;71925.44;5071906;28;20204;-78
2023/10/21 06:18:36;;;;;;;24.73;7.50;;;;;;;-143.21;60.81;71923.47;5070298;28;20229;-79
2023/10/21 06:21:03;;;;;;;23.17;7.50;;;;;;;-143.21;60.70;71919.50;5071754;28;20303;-79
2023/10/21 06:23:31;;;;;;;21.07;7.33;;;;;;;-143.21;60.47;71907.59;5072353;28;20212;-79
2023/10/21 06:25:58;;;;;;;21.80;7.70;;;;;;;-143.21;59.29;71875.88;5072661;28;20214;-78
2023/10/21 06:28:24;;;;;;;19.07;7.67;;;;;;;-143.21;58.97;71858.03;5072280;28;20285;-80
2023/10/21 06:30:51;;;;;;;19.33;6.70;;;;;;;-143.21;59.21;71863.97;5071720;28;20236;-79
2023/10/21 06:33:19;;;;;;;19.27;6.27;;;;;;;-143.21;59.81;71865.97;5071482;28;20209;-80
2023/10/21 06:35:46;;;;;;;18.17;7.30;;;;;;;-143.21;59.90;71862.00;5071852;28;20201;-80
2023/10/21 06:38:14;;;;;;;13.60;6.40;;;;;;;-143.21;59.69;71846.13;5071785;28;20201;-80
2023/10/21 06:40:41;;;;;;;18.47;6.40;;;;;;;-143.21;59.45;71830.25;5071829;28;20201;-79
2023/10/21 06:43:08;;;;;;;16.00;5.37;;;;;;;-143.21;58.95;71824.31;5071327;28;20711;-79
2023/10/21 06:45:36;;;;;;;19.47;5.67;;;;;;;-143.21;58.71;71814.41;5071770;28;20217;-78
2023/10/21 06:48:04;;;;;;;11.73;5.80;;;;;;;-143.21;58.48;71812.41;5070259;28;20201;-77
2023/10/21 06:50:32;;;;;;;13.83;5.30;;;;;;;-143.21;58.04;71782.69;5070754;28;20566;-77
2023/10/21 06:52:59;;;;;;;13.30;5.17;;;;;;;-143.21;57.51;71770.78;5071549;28;20784;-81
2023/10/21 06:55:26;;;;;;;19.20;5.37;;;;;;;-143.21;57.05;71756.91;5071209;28;20197;-77
2023/10/21 06:57:53;;;;;;;21.40;5.97;;;;;;;-143.21;57.04;71750.94;5071175;28;20284;-84
2023/10/21 07:00:20;;;;;;;15.30;5.65;;;;;;;-143.21;56.58;71739.06;5071815;28;20701;-81
2023/10/21 07:02:47;;;;;;;24.75;6.45;;;;;;;-143.21;56.25;71715.25;5071638;28;20237;-80
2023/10/21 07:05:14;;;;;;;20.77;6.05;;;;;;;-143.21;55.54;71709.31;5070458;28;20209;-78
2023/10/21 07:07:42;;;;;;;19.55;5.78;;;;;;;-143.21;55.21;71705.34;5071297;28;20202;-78
2023/10/21 07:10:10;;;;;;;14.32;5.60;;;;;;;-143.21;54.83;71689.47;5069623;28;20235;-79
2023/10/21 07:12:38;;;;;;;16.85;6.20;;;;;;;-143.21;54.19;71683.53;5070537;28;20217;-79
2023/10/21 07:15:07;;;;;;;18.75;6.85;;;;;;;-143.21;53.83;71681.56;5069784;28;20278;-79
2023/10/21 07:17:33;;;;;;;21.45;6.88;;;;;;;-143.21;53.27;71673.63;5069284;28;20224;-79
2023/10/21 07:20:00;;;;;;;20.52;7.40;;;;;;;-143.21;53.30;71673.63;5067356;28;20198;-79
2023/10/21 07:22:27;;;;;;;14.77;6.90;;;;;;;-143.21;52.11;71655.78;5067310;28;20323;-78
2023/10/21 07:24:59;;;;;;;22.73;6.70;;;;;;;-143.21;51.51;71657.75;5070145;28;20225;-78
2023/10/21 07:27:27;;;;;;;16.42;6.60;;;;;;;-143.21;51.46;71647.84;5069544;28;20724;-78
2023/10/21 07:29:55;;;;;;;22.52;6.40;;;;;;;-143.21;51.59;71653.78;5069669;28;20221;-78
2023/10/21 07:32:23;;;;;;;12.98;6.50;;;;;;;-143.21;51.66;71641.91;5069503;28;20645;-78
2023/10/21 07:34:50;;;;;;;21.83;7.80;;;;;;;-143.21;51.49;71633.97;5069772;28;20206;-79
2023/10/21 07:37:16;;;;;;;16.65;7.32;;;;;;;-143.21;51.13;71633.97;5069700;28;20218;-78
2023/10/21 07:39:43;;;;;;;18.33;7.15;;;;;;;-143.21;50.68;71624.06;5069593;28;20988;-78
2023/10/21 07:42:14;;;;;;;22.83;7.15;;;;;;;-143.21;50.33;71610.16;5069673;28;20224;-79
2023/10/21 07:44:41;;;;;;;21.55;7.35;;;;;;;-143.21;50.43;71602.25;5067956;28;20206;-78
2023/10/21 07:47:10;;;;;;;21.67;9.20;;;;;;;-143.21;50.29;71596.28;5068088;28;20292;-78
2023/10/21 07:49:37;;;;;;;18.63;7.10;;;;;;;-143.21;50.22;71594.31;5054059;28;20220;-79
2023/10/21 07:52:09;;;;;;;23.83;7.07;;;;;;;-143.21;50.15;71576.47;5068721;28;20657;-79
2023/10/21 07:54:37;;;;;;;18.90;7.32;;;;;;;-143.21;50.01;71584.41;5069395;28;20245;-79
2023/10/21 07:57:06;;;;;;;20.48;7.38;;;;;;;-143.21;49.76;71564.56;5062187;28;20233;-78
2023/10/21 08:02:46;;;;;;;17.70;6.90;;;;;;;-143.21;50.71;71586.38;5050326;28;20237;-79
2023/10/21 08:05:15;;;;;;;16.42;6.15;;;;;;;-143.21;51.15;71594.31;5055912;28;20205;-79
2023/10/21 08:07:45;;;;;;;16.10;6.80;;;;;;;-143.21;51.36;71578.44;5070652;28;20260;-79
2023/10/21 08:10:12;;;;;;;15.80;6.07;;;;;;;-143.21;50.68;71546.72;5070860;28;20205;-79
2023/10/21 08:12:39;;;;;;;16.35;6.32;;;;;;;-143.21;50.45;71524.91;5071799;28;20193;-83
2023/10/21 08:15:08;;;;;;;19.10;6.07;;;;;;;-143.21;50.07;71503.09;5072379;28;20656;-82
2023/10/21 08:17:37;;;;;;;20.17;6.13;;;;;;;-143.21;52.06;71477.34;5071966;28;20200;-83
2023/10/21 08:20:04;;;;;;;18.70;6.03;;;;;;;-143.21;49.97;71439.66;5071592;28;20201;-83
2023/10/21 08:22:33;;;;;;;19.75;6.45;;;;;;;-143.21;49.44;71429.75;5071810;28;20714;-83
2023/10/21 08:25:00;;;;;;;16.38;6.85;;;;;;;-143.21;48.50;71415.88;5070519;28;20220;-79
2023/10/21 08:27:27;;;;;;;16.17;5.88;;;;;;;-143.21;47.98;71388.09;5070010;28;20205;-78
2023/10/21 08:29:54;;;;;;;18.17;5.90;;;;;;;-143.21;47.05;71356.38;5069287;28;20727;-77
2023/10/21 08:32:22;;;;;;;17.55;5.68;;;;;;;-143.21;46.24;71326.66;5049514;28;20301;-76
2023/10/21 08:34:49;;;;;;;16.83;5.07;;;;;;;-143.21;45.10;71279.06;5063333;28;20205;-76
2023/10/21 08:37:16;;;;;;;19.45;5.50;;;;;;;-143.21;44.40;71245.38;5069557;28;20205;-77
2023/10/21 08:39:43;;;;;;;27.27;5.25;;;;;;;-143.21;43.49;71209.69;5070006;28;20652;-77
2023/10/21 08:42:10;;;;;;;15.85;5.57;;;;;;;-143.21;42.73;71168.06;5070020;28;20265;-77
2023/10/21 08:44:38;;;;;;;13.52;5.43;;;;;;;-143.21;41.99;71126.41;5068728;28;20730;-77
2023/10/21 08:47:07;;;;;;;17.20;5.53;;;;;;;-143.21;41.23;71082.81;5069549;28;20201;-78
2023/10/21 08:49:37;;;;;;;28.77;4.90;;;;;;;-143.21;40.10;71043.16;5069601;28;20197;-78
2023/10/21 08:52:06;;;;;;;19.67;5.55;;;;;;;-143.21;39.51;71009.44;5069536;28;20198;-78
2023/10/21 08:54:34;;;;;;;13.70;4.90;;;;;;;-143.21;38.32;70975.75;5068910;28;20201;-78
2023/10/21 08:57:01;;;;;;;20.10;5.22;;;;;;;-143.21;38.52;70916.28;5069181;28;20259;-78
2023/10/21 08:59:28;;;;;;;15.25;5.18;;;;;;;-143.21;37.89;70856.81;5069492;28;20208;-78
2023/10/21 09:01:56;;;;;;;19.17;5.10;;;;;;;-143.21;36.25;70819.16;5069042;28;20225;-78
2023/10/21 09:04:23;;;;;;;12.68;5.10;;;;;;;-143.21;35.59;70747.78;5068597;28;20197;-78
2023/10/21 09:06:59;;;;;;;15.13;4.20;;;;;;;-143.21;31.80;70739.84;5069135;28;20205;-78
2023/10/21 09:09:27;;;;;;;15.48;4.60;;;;;;;-143.21;31.83;70700.22;5069195;28;20209;-78
2023/10/21 09:12:05;;;;;;;19.92;4.15;;;;;;;-143.21;30.91;70660.56;5069621;28;20295;-78
2023/10/21 09:14:50;;;;;;;10.52;3.53;;;;;;;-143.21;29.23;70593.19;5069764;28;20672;-77
2023/10/21 09:17:17;;;;;;;14.25;3.55;;;;;;;-143.21;28.95;70541.63;5069542;28;20312;-77
2023/10/21 09:19:44;;;;;;;17.88;4.28;;;;;;;-143.21;27.23;70500.00;5069019;28;20216;-79
2023/10/21 09:22:27;;;;;;;16.80;3.65;;;;;;;-143.21;26.05;70470.28;5068605;28;20577;-77
2023/10/21 09:25:16;;;;;;;18.45;3.25;;;;;;;-143.21;25.59;70430.66;5069347;28;20204;-77
2023/10/21 09:27:43;;;;;;;16.20;3.47;;;;;;;-143.21;25.61;70377.13;5055862;28;20200;-77
2023/10/21 09:30:16;;;;;;;22.02;3.35;;;;;;;-143.21;25.16;70355.31;5068876;28;20711;-77
2023/10/21 09:32:43;;;;;;;20.52;3.30;;;;;;;-143.21;25.11;70323.63;5068689;28;20185;-78
2023/10/21 09:35:23;;;;;;;15.70;3.08;;;;;;;-143.21;24.79;70282.00;5069032;28;20203;-76
2023/10/21 09:37:52;;;;;;;19.98;4.00;;;;;;;-143.21;24.56;70280.00;5069093;28;20775;-76
2023/10/21 09:40:19;;;;;;;20.85;3.80;;;;;;;-143.21;24.67;70236.41;5069465;28;20842;-77
2023/10/21 09:42:49;;;;;;;18.10;4.32;;;;;;;-143.21;24.33;70220.56;5072933;28;20228;-76
2023/10/21 09:45:17;;;;;;;13.25;3.88;;;;;;;-143.21;24.32;70182.91;5072704;28;20296;-77
2023/10/21 09:47:45;;;;;;;19.90;3.78;;;;;;;-143.21;24.21;70224.50;5072868;28;20197;-79
2023/10/21 09:50:13;;;;;;;19.38;3.17;;;;;;;-143.21;24.56;70192.81;5072726;28;20741;-77
2023/10/21 09:52:45;;;;;;;11.63;2.85;;;;;;;-143.21;24.53;70159.13;5072786;28;20267;-78
2023/10/21 09:55:15;;;;;;;18.48;3.67;;;;;;;-143.21;24.28;70139.28;5072591;28;20635;-77
2023/10/21 09:57:44;;;;;;;19.90;3.45;;;;;;;-143.21;24.31;70099.66;5072752;28;20216;-79
2023/10/21 10:00:19;;;;;;;18.48;3.35;;;;;;;-143.21;23.98;70103.63;5072307;28;20247;-77
2023/10/21 10:02:48;;;;;;;15.75;3.67;;;;;;;-143.21;23.97;70095.69;5070827;28;20229;-76
2023/10/21 10:05:17;;;;;;;18.27;3.80;;;;;;;-143.21;23.64;70087.75;5072252;28;20213;-77
2023/10/21 10:07:45;;;;;;;26.98;3.53;;;;;;;-143.21;23.70;70079.84;5072556;28;20623;-77
2023/10/21 10:10:15;;;;;;;18.63;3.72;;;;;;;-143.21;23.91;70079.84;5072453;28;20205;-78
2023/10/21 10:12:46;;;;;;;24.50;4.95;;;;;;;-143.21;23.73;70038.22;5072536;28;20209;-77
2023/10/21 10:15:33;;;;;;;29.90;3.45;;;;;;;-143.21;23.52;70058.03;5072694;28;20584;-77
2023/10/21 10:18:02;;;;;;;20.63;4.00;;;;;;;-143.21;23.75;70054.06;5072535;28;20200;-76
2023/10/21 10:20:30;;;;;;;25.25;4.03;;;;;;;-143.21;23.99;70054.06;5071728;28;20305;-76
2023/10/21 10:22:59;;;;;;;20.23;4.22;;;;;;;-143.21;24.06;70040.19;5072396;28;20221;-77
2023/10/21 10:25:31;;;;;;;21.20;3.92;;;;;;;-143.21;23.83;69990.66;5072112;28;20289;-77
2023/10/21 10:28:00;;;;;;;22.85;4.07;;;;;;;-143.21;23.27;69968.84;5071717;28;20290;-77
2023/10/21 10:30:32;;;;;;;33.90;3.80;;;;;;;-143.21;22.75;69949.03;5071521;28;20240;-78
2023/10/21 10:33:07;;;;;;;24.77;4.97;;;;;;;-143.21;23.06;69960.94;5072223;28;20193;-77
2023/10/21 10:35:37;;;;;;;29.25;4.43;;;;;;;-143.21;22.96;69951.03;5072249;28;20205;-77
2023/10/21 10:38:17;;;;;;;21.20;3.83;;;;;;;-143.21;22.63;69927.25;5072110;28;20201;-78
2023/10/21 10:40:46;;;;;;;23.33;3.70;;;;;;;-143.21;22.59;69907.41;5071888;28;20200;-78
2023/10/21 10:43:13;;;;;;;21.10;3.53;;;;;;;-143.21;22.69;69935.16;5072124;28;20221;-77
2023/10/21 10:45:40;;;;;;;28.75;4.05;;;;;;;-143.21;22.80;69939.13;5071411;28;20216;-78
2023/10/21 10:48:08;;;;;;;17.77;3.50;;;;;;;-143.21;23.14;69966.88;5071417;28;20220;-77
2023/10/21 10:50:37;;;;;;;16.65;3.35;;;;;;;-143.21;22.80;69966.88;5071865;28;20206;-78
2023/10/21 10:53:15;;;;;;;13.90;4.07;;;;;;;-143.21;23.20;69947.06;5071511;28;20213;-77
2023/10/21 10:55:47;;;;;;;22.27;4.07;;;;;;;-143.21;22.93;69919.31;5071834;28;20538;-77
2023/10/21 10:58:15;;;;;;;25.27;3.58;;;;;;;-143.21;23.22;69883.63;5071179;28;20660;-77
2023/10/21 11:00:42;;;;;;;21.65;4.07;;;;;;;-143.21;22.77;69913.38;5059889;28;20213;-76
2023/10/21 11:03:10;;;;;;;15.75;3.97;;;;;;;-143.21;22.85;69915.34;5051190;28;20876;-77
2023/10/21 11:05:38;;;;;;;37.10;4.57;;;;;;;-143.21;23.09;69917.31;5056291;28;20209;-77
2023/10/21 11:08:07;;;;;;;26.48;4.40;;;;;;;-143.21;23.03;69925.25;5070916;28;20201;-76
2023/10/21 11:10:35;;;;;;;18.33;4.50;;;;;;;-143.21;23.51;69939.13;5071036;28;20201;-77
2023/10/21 11:13:05;;;;;;;19.98;3.80;;;;;;;-143.21;23.38;69951.03;5071208;28;20558;-79
2023/10/21 11:15:32;;;;;;;15.32;3.78;;;;;;;-143.21;23.48;69929.22;5071104;28;20263;-79